Palmeirandia, Brazil
Current Conditions -  °F | °C
As of 8:00 AM on Saturday 25 Oct 2014 (Local Time) from SBSL Reporting Station
Scattered Clouds Scattered Clouds  
Wind Chill: 82°   Ceiling: Unl
Heat Index: 86°   Visibility: 6mi
Dew Point: 70°   Wind: 14mph
Humidity: 66%   Direction: 90°E
Pressure: 29.85"   Gusts: NA
Location:  2.65°S, 44.89°W
Report Text: SBSL 251100Z 09012KT 9999 SCT017 28/21 Q1011
Loading
Personal Weather Stations






























Interactive Weather Map
Tropical Storm Tracking
New forecast layout! Learn more

10-Day Weather Forecast

Advertisements
Track Severe Weather on mobile